sensor_id;sensor_type;location;lat;lon;timestamp;temperature;humidity
38726;DHT22;24474;48.906;8.808;2023-09-07T00:01:30;18.30;99.90
38726;DHT22;24474;48.906;8.808;2023-09-07T00:03:56;18.30;99.90
38726;DHT22;24474;48.906;8.808;2023-09-07T00:06:21;18.20;99.90
38726;DHT22;24474;48.906;8.808;2023-09-07T00:08:47;18.20;99.90
38726;DHT22;24474;48.906;8.808;2023-09-07T00:11:13;18.20;99.90
38726;DHT22;24474;48.906;8.808;2023-09-07T00:13:38;18.10;99.90
38726;DHT22;24474;48.906;8.808;2023-09-07T00:16:05;18.10;99.90
38726;DHT22;24474;48.906;8.808;2023-09-07T00:18:31;18.00;99.90
38726;DHT22;24474;48.906;8.808;2023-09-07T00:21:00;18.00;99.90
38726;DHT22;24474;48.906;8.808;2023-09-07T00:23:26;17.90;99.90
38726;DHT22;24474;48.906;8.808;2023-09-07T00:25:52;17.90;99.90
38726;DHT22;24474;48.906;8.808;2023-09-07T00:28:17;17.90;99.90
38726;DHT22;24474;48.906;8.808;2023-09-07T00:30:43;17.80;99.90
38726;DHT22;24474;48.906;8.808;2023-09-07T00:33:09;17.80;99.90
38726;DHT22;24474;48.906;8.808;2023-09-07T00:35:35;17.80;99.90
38726;DHT22;24474;48.906;8.808;2023-09-07T00:38:01;17.80;99.90
38726;DHT22;24474;48.906;8.808;2023-09-07T00:40:26;17.70;99.90
38726;DHT22;24474;48.906;8.808;2023-09-07T00:42:53;17.70;99.90
38726;DHT22;24474;48.906;8.808;2023-09-07T00:45:19;17.60;99.90
38726;DHT22;24474;48.906;8.808;2023-09-07T00:47:44;17.60;99.90
38726;DHT22;24474;48.906;8.808;2023-09-07T00:50:11;17.60;99.90
38726;DHT22;24474;48.906;8.808;2023-09-07T00:52:41;17.50;99.90
38726;DHT22;24474;48.906;8.808;2023-09-07T00:55:08;17.50;99.90
38726;DHT22;24474;48.906;8.808;2023-09-07T00:57:35;17.40;99.90
38726;DHT22;24474;48.906;8.808;2023-09-07T01:00:02;17.40;99.90
38726;DHT22;24474;48.906;8.808;2023-09-07T01:02:29;17.40;99.90
38726;DHT22;24474;48.906;8.808;2023-09-07T01:04:55;17.30;99.90
38726;DHT22;24474;48.906;8.808;2023-09-07T01:07:24;17.30;99.90
38726;DHT22;24474;48.906;8.808;2023-09-07T01:09:54;17.30;99.90
38726;DHT22;24474;48.906;8.808;2023-09-07T01:12:21;17.30;99.90
38726;DHT22;24474;48.906;8.808;2023-09-07T01:14:46;17.20;99.90
38726;DHT22;24474;48.906;8.808;2023-09-07T01:17:12;17.20;99.90
38726;DHT22;24474;48.906;8.808;2023-09-07T01:19:39;17.10;99.90
38726;DHT22;24474;48.906;8.808;2023-09-07T01:22:09;17.10;99.90
38726;DHT22;24474;48.906;8.808;2023-09-07T01:24:37;17.10;99.90
38726;DHT22;24474;48.906;8.808;2023-09-07T01:27:04;17.00;99.90
38726;DHT22;24474;48.906;8.808;2023-09-07T01:29:31;17.00;99.90
38726;DHT22;24474;48.906;8.808;2023-09-07T01:31:57;16.90;99.90
38726;DHT22;24474;48.906;8.808;2023-09-07T01:34:24;16.90;99.90
38726;DHT22;24474;48.906;8.808;2023-09-07T01:36:50;16.80;99.90
38726;DHT22;24474;48.906;8.808;2023-09-07T01:39:16;16.80;99.90
38726;DHT22;24474;48.906;8.808;2023-09-07T01:48:39;16.70;99.90
38726;DHT22;24474;48.906;8.808;2023-09-07T01:51:11;16.60;99.90
38726;DHT22;24474;48.906;8.808;2023-09-07T01:53:46;16.60;99.90
38726;DHT22;24474;48.906;8.808;2023-09-07T01:56:35;16.60;99.90
38726;DHT22;24474;48.906;8.808;2023-09-07T01:59:03;16.60;99.90
38726;DHT22;24474;48.906;8.808;2023-09-07T02:01:38;16.50;99.90
38726;DHT22;24474;48.906;8.808;2023-09-07T02:04:31;16.50;99.90
38726;DHT22;24474;48.906;8.808;2023-09-07T02:06:57;16.40;99.90
38726;DHT22;24474;48.906;8.808;2023-09-07T02:10:01;16.40;99.90
38726;DHT22;24474;48.906;8.808;2023-09-07T02:12:33;16.40;99.90
38726;DHT22;24474;48.906;8.808;2023-09-07T02:15:11;16.40;99.90
38726;DHT22;24474;48.906;8.808;2023-09-07T02:17:56;16.30;99.90
38726;DHT22;24474;48.906;8.808;2023-09-07T02:20:30;16.30;99.90
38726;DHT22;24474;48.906;8.808;2023-09-07T02:22:56;16.30;99.90
38726;DHT22;24474;48.906;8.808;2023-09-07T02:25:47;16.20;99.90
38726;DHT22;24474;48.906;8.808;2023-09-07T02:28:37;16.20;99.90
38726;DHT22;24474;48.906;8.808;2023-09-07T02:31:36;16.10;99.90
38726;DHT22;24474;48.906;8.808;2023-09-07T02:34:07;16.10;99.90
38726;DHT22;24474;48.906;8.808;2023-09-07T02:36:41;16.10;99.90
38726;DHT22;24474;48.906;8.808;2023-09-07T02:39:08;16.10;99.90
38726;DHT22;24474;48.906;8.808;2023-09-07T02:41:40;16.10;99.90
38726;DHT22;24474;48.906;8.808;2023-09-07T02:44:07;16.00;99.90
38726;DHT22;24474;48.906;8.808;2023-09-07T02:46:38;16.00;99.90
38726;DHT22;24474;48.906;8.808;2023-09-07T02:49:21;16.00;99.90
38726;DHT22;24474;48.906;8.808;2023-09-07T02:52:03;16.00;99.90
38726;DHT22;24474;48.906;8.808;2023-09-07T02:54:37;16.00;99.90
38726;DHT22;24474;48.906;8.808;2023-09-07T03:00:23;15.90;99.90
38726;DHT22;24474;48.906;8.808;2023-09-07T03:02:49;15.90;99.90
38726;DHT22;24474;48.906;8.808;2023-09-07T03:05:17;15.80;99.90
38726;DHT22;24474;48.906;8.808;2023-09-07T03:07:45;15.80;99.90
38726;DHT22;24474;48.906;8.808;2023-09-07T03:10:11;15.70;99.90
38726;DHT22;24474;48.906;8.808;2023-09-07T03:12:37;15.70;99.90
38726;DHT22;24474;48.906;8.808;2023-09-07T03:15:03;15.60;99.90
38726;DHT22;24474;48.906;8.808;2023-09-07T03:17:30;15.60;99.90
38726;DHT22;24474;48.906;8.808;2023-09-07T03:19:55;15.60;99.90
38726;DHT22;24474;48.906;8.808;2023-09-07T03:22:22;15.60;99.90
38726;DHT22;24474;48.906;8.808;2023-09-07T03:24:50;15.50;99.90
38726;DHT22;24474;48.906;8.808;2023-09-07T03:27:16;15.50;99.90
38726;DHT22;24474;48.906;8.808;2023-09-07T03:29:42;15.50;99.90
38726;DHT22;24474;48.906;8.808;2023-09-07T03:32:07;15.50;99.90
38726;DHT22;24474;48.906;8.808;2023-09-07T03:34:34;15.40;99.90
38726;DHT22;24474;48.906;8.808;2023-09-07T03:37:00;15.50;99.90
38726;DHT22;24474;48.906;8.808;2023-09-07T03:39:25;15.40;99.90
38726;DHT22;24474;48.906;8.808;2023-09-07T03:41:51;15.40;99.90
38726;DHT22;24474;48.906;8.808;2023-09-07T03:44:17;15.40;99.90
38726;DHT22;24474;48.906;8.808;2023-09-07T03:46:43;15.30;99.90
38726;DHT22;24474;48.906;8.808;2023-09-07T03:49:09;15.30;99.90
38726;DHT22;24474;48.906;8.808;2023-09-07T03:51:34;15.30;99.90
38726;DHT22;24474;48.906;8.808;2023-09-07T03:54:00;15.30;99.90
38726;DHT22;24474;48.906;8.808;2023-09-07T03:56:26;15.30;99.90
38726;DHT22;24474;48.906;8.808;2023-09-07T03:58:52;15.20;99.90
38726;DHT22;24474;48.906;8.808;2023-09-07T04:01:17;15.20;99.90
38726;DHT22;24474;48.906;8.808;2023-09-07T04:03:43;15.20;99.90
38726;DHT22;24474;48.906;8.808;2023-09-07T04:06:09;15.10;99.90
38726;DHT22;24474;48.906;8.808;2023-09-07T04:08:34;15.10;99.90
38726;DHT22;24474;48.906;8.808;2023-09-07T04:11:07;15.10;99.90
38726;DHT22;24474;48.906;8.808;2023-09-07T04:13:33;15.00;99.90
38726;DHT22;24474;48.906;8.808;2023-09-07T04:15:58;15.00;99.90
38726;DHT22;24474;48.906;8.808;2023-09-07T04:18:24;15.00;99.90
38726;DHT22;24474;48.906;8.808;2023-09-07T04:20:49;14.90;99.90
38726;DHT22;24474;48.906;8.808;2023-09-07T04:23:15;14.90;99.90
38726;DHT22;24474;48.906;8.808;2023-09-07T04:25:41;14.90;99.90
38726;DHT22;24474;48.906;8.808;2023-09-07T04:28:07;14.90;99.90
38726;DHT22;24474;48.906;8.808;2023-09-07T04:30:37;14.90;99.90
38726;DHT22;24474;48.906;8.808;2023-09-07T04:33:02;14.80;99.90
38726;DHT22;24474;48.906;8.808;2023-09-07T04:35:32;14.90;99.90
38726;DHT22;24474;48.906;8.808;2023-09-07T04:37:58;14.80;99.90
38726;DHT22;24474;48.906;8.808;2023-09-07T04:40:25;14.80;99.90
38726;DHT22;24474;48.906;8.808;2023-09-07T04:42:51;14.80;99.90
38726;DHT22;24474;48.906;8.808;2023-09-07T04:45:17;14.80;99.90
38726;DHT22;24474;48.906;8.808;2023-09-07T04:47:43;14.70;99.90
38726;DHT22;24474;48.906;8.808;2023-09-07T04:50:09;14.70;99.90
38726;DHT22;24474;48.906;8.808;2023-09-07T04:52:35;14.70;99.90
38726;DHT22;24474;48.906;8.808;2023-09-07T04:55:01;14.70;99.90
38726;DHT22;24474;48.906;8.808;2023-09-07T04:57:27;14.70;99.90
38726;DHT22;24474;48.906;8.808;2023-09-07T04:59:52;14.60;99.90
38726;DHT22;24474;48.906;8.808;2023-09-07T05:02:18;14.60;99.90
38726;DHT22;24474;48.906;8.808;2023-09-07T05:04:44;14.60;99.90
38726;DHT22;24474;48.906;8.808;2023-09-07T05:07:10;14.60;99.90
38726;DHT22;24474;48.906;8.808;2023-09-07T05:09:36;14.60;99.90
38726;DHT22;24474;48.906;8.808;2023-09-07T05:12:01;14.60;99.90
38726;DHT22;24474;48.906;8.808;2023-09-07T05:14:28;14.60;99.90
38726;DHT22;24474;48.906;8.808;2023-09-07T05:16:55;14.70;99.90
38726;DHT22;24474;48.906;8.808;2023-09-07T05:19:22;14.70;99.90
38726;DHT22;24474;48.906;8.808;2023-09-07T05:21:48;14.70;99.90
38726;DHT22;24474;48.906;8.808;2023-09-07T05:24:14;14.80;99.90
38726;DHT22;24474;48.906;8.808;2023-09-07T05:26:41;14.80;99.90
38726;DHT22;24474;48.906;8.808;2023-09-07T05:29:07;14.90;99.90
38726;DHT22;24474;48.906;8.808;2023-09-07T05:31:33;14.90;99.90
38726;DHT22;24474;48.906;8.808;2023-09-07T05:33:58;14.90;99.90
38726;DHT22;24474;48.906;8.808;2023-09-07T05:36:24;15.00;99.90
38726;DHT22;24474;48.906;8.808;2023-09-07T05:38:50;15.00;99.90
38726;DHT22;24474;48.906;8.808;2023-09-07T05:41:18;15.00;99.90
38726;DHT22;24474;48.906;8.808;2023-09-07T05:43:45;15.00;99.90
38726;DHT22;24474;48.906;8.808;2023-09-07T05:46:10;15.10;99.90
38726;DHT22;24474;48.906;8.808;2023-09-07T05:48:36;15.10;99.90
38726;DHT22;24474;48.906;8.808;2023-09-07T05:51:02;15.20;99.90
38726;DHT22;24474;48.906;8.808;2023-09-07T05:53:27;15.20;99.90
38726;DHT22;24474;48.906;8.808;2023-09-07T05:55:53;15.20;99.90
38726;DHT22;24474;48.906;8.808;2023-09-07T05:58:19;15.30;99.90
38726;DHT22;24474;48.906;8.808;2023-09-07T06:00:44;15.30;99.90
38726;DHT22;24474;48.906;8.808;2023-09-07T06:03:10;15.40;99.90
38726;DHT22;24474;48.906;8.808;2023-09-07T06:05:37;15.40;99.90
38726;DHT22;24474;48.906;8.808;2023-09-07T06:08:04;15.50;99.90
38726;DHT22;24474;48.906;8.808;2023-09-07T06:10:31;15.50;99.90
38726;DHT22;24474;48.906;8.808;2023-09-07T06:12:58;15.50;99.90
38726;DHT22;24474;48.906;8.808;2023-09-07T06:15:24;15.60;99.90
38726;DHT22;24474;48.906;8.808;2023-09-07T06:17:51;15.60;99.90
38726;DHT22;24474;48.906;8.808;2023-09-07T06:20:17;15.70;99.90
38726;DHT22;24474;48.906;8.808;2023-09-07T06:22:46;15.70;99.90
38726;DHT22;24474;48.906;8.808;2023-09-07T06:25:11;15.80;99.90
38726;DHT22;24474;48.906;8.808;2023-09-07T06:27:37;15.80;99.90
38726;DHT22;24474;48.906;8.808;2023-09-07T06:30:06;15.80;99.90
38726;DHT22;24474;48.906;8.808;2023-09-07T06:32:33;15.90;99.90
38726;DHT22;24474;48.906;8.808;2023-09-07T06:34:58;16.00;99.90
38726;DHT22;24474;48.906;8.808;2023-09-07T06:37:25;16.10;99.90
38726;DHT22;24474;48.906;8.808;2023-09-07T06:39:51;16.20;99.90
38726;DHT22;24474;48.906;8.808;2023-09-07T06:42:17;16.30;99.90
38726;DHT22;24474;48.906;8.808;2023-09-07T06:44:42;16.40;99.90
38726;DHT22;24474;48.906;8.808;2023-09-07T06:47:08;16.50;99.90
38726;DHT22;24474;48.906;8.808;2023-09-07T06:49:34;16.60;99.90
38726;DHT22;24474;48.906;8.808;2023-09-07T06:52:00;16.70;99.90
38726;DHT22;24474;48.906;8.808;2023-09-07T06:54:28;16.90;99.90
38726;DHT22;24474;48.906;8.808;2023-09-07T06:56:54;17.00;99.90
38726;DHT22;24474;48.906;8.808;2023-09-07T06:59:20;17.00;99.90
38726;DHT22;24474;48.906;8.808;2023-09-07T07:01:47;17.10;99.90
38726;DHT22;24474;48.906;8.808;2023-09-07T07:04:13;17.20;99.90
38726;DHT22;24474;48.906;8.808;2023-09-07T07:06:40;17.30;99.90
38726;DHT22;24474;48.906;8.808;2023-09-07T07:09:05;17.30;99.90
38726;DHT22;24474;48.906;8.808;2023-09-07T07:11:31;17.40;99.90
38726;DHT22;24474;48.906;8.808;2023-09-07T07:13:57;17.50;99.90
38726;DHT22;24474;48.906;8.808;2023-09-07T07:16:22;17.50;99.90
38726;DHT22;24474;48.906;8.808;2023-09-07T07:18:48;17.60;99.90
38726;DHT22;24474;48.906;8.808;2023-09-07T07:21:14;17.60;99.90
38726;DHT22;24474;48.906;8.808;2023-09-07T07:23:39;17.70;99.90
38726;DHT22;24474;48.906;8.808;2023-09-07T07:26:05;17.70;99.90
38726;DHT22;24474;48.906;8.808;2023-09-07T07:28:30;17.80;99.90
38726;DHT22;24474;48.906;8.808;2023-09-07T07:30:56;17.90;99.90
38726;DHT22;24474;48.906;8.808;2023-09-07T07:33:22;18.00;99.90
38726;DHT22;24474;48.906;8.808;2023-09-07T07:35:48;18.00;99.90
38726;DHT22;24474;48.906;8.808;2023-09-07T07:38:15;18.10;99.90
38726;DHT22;24474;48.906;8.808;2023-09-07T07:40:42;18.20;99.90
38726;DHT22;24474;48.906;8.808;2023-09-07T07:43:09;18.20;99.90
38726;DHT22;24474;48.906;8.808;2023-09-07T07:45:36;18.30;99.90
38726;DHT22;24474;48.906;8.808;2023-09-07T07:48:05;18.40;99.90
38726;DHT22;24474;48.906;8.808;2023-09-07T07:50:38;18.40;99.90
38726;DHT22;24474;48.906;8.808;2023-09-07T07:53:07;18.50;99.90
38726;DHT22;24474;48.906;8.808;2023-09-07T07:55:39;18.50;99.90
38726;DHT22;24474;48.906;8.808;2023-09-07T07:58:08;18.60;99.90
38726;DHT22;24474;48.906;8.808;2023-09-07T08:00:38;18.70;99.90
38726;DHT22;24474;48.906;8.808;2023-09-07T08:03:07;18.70;99.90
38726;DHT22;24474;48.906;8.808;2023-09-07T08:05:33;18.80;99.90
38726;DHT22;24474;48.906;8.808;2023-09-07T08:08:01;18.90;99.90
38726;DHT22;24474;48.906;8.808;2023-09-07T08:10:28;18.90;99.90
38726;DHT22;24474;48.906;8.808;2023-09-07T08:12:55;19.00;99.90
38726;DHT22;24474;48.906;8.808;2023-09-07T08:15:21;19.00;99.90
38726;DHT22;24474;48.906;8.808;2023-09-07T08:17:49;19.10;99.90
38726;DHT22;24474;48.906;8.808;2023-09-07T08:20:15;19.20;99.90
38726;DHT22;24474;48.906;8.808;2023-09-07T08:22:42;19.20;99.90
38726;DHT22;24474;48.906;8.808;2023-09-07T08:25:11;19.30;99.90
38726;DHT22;24474;48.906;8.808;2023-09-07T08:27:41;19.40;99.90
38726;DHT22;24474;48.906;8.808;2023-09-07T08:30:12;19.40;99.90
38726;DHT22;24474;48.906;8.808;2023-09-07T08:32:37;19.50;99.90
38726;DHT22;24474;48.906;8.808;2023-09-07T08:35:04;19.50;99.90
38726;DHT22;24474;48.906;8.808;2023-09-07T08:37:33;19.60;99.90
38726;DHT22;24474;48.906;8.808;2023-09-07T08:40:00;19.60;99.90
38726;DHT22;24474;48.906;8.808;2023-09-07T08:42:27;19.70;99.90
38726;DHT22;24474;48.906;8.808;2023-09-07T08:44:54;19.80;99.90
38726;DHT22;24474;48.906;8.808;2023-09-07T08:47:25;19.80;99.90
38726;DHT22;24474;48.906;8.808;2023-09-07T08:49:57;19.90;99.90
38726;DHT22;24474;48.906;8.808;2023-09-07T08:52:24;19.90;99.90
38726;DHT22;24474;48.906;8.808;2023-09-07T08:54:50;20.00;99.90
38726;DHT22;24474;48.906;8.808;2023-09-07T08:57:20;20.00;99.90
38726;DHT22;24474;48.906;8.808;2023-09-07T08:59:50;20.10;99.90
38726;DHT22;24474;48.906;8.808;2023-09-07T09:02:17;20.10;99.90
38726;DHT22;24474;48.906;8.808;2023-09-07T09:04:43;20.20;99.90
38726;DHT22;24474;48.906;8.808;2023-09-07T09:07:09;20.30;99.90
38726;DHT22;24474;48.906;8.808;2023-09-07T09:09:36;20.30;99.90
38726;DHT22;24474;48.906;8.808;2023-09-07T09:12:11;20.40;99.90
38726;DHT22;24474;48.906;8.808;2023-09-07T09:14:44;20.50;99.90
38726;DHT22;24474;48.906;8.808;2023-09-07T09:17:16;20.50;99.90
38726;DHT22;24474;48.906;8.808;2023-09-07T09:19:42;20.60;99.90
38726;DHT22;24474;48.906;8.808;2023-09-07T09:22:12;20.60;99.90
38726;DHT22;24474;48.906;8.808;2023-09-07T09:24:39;20.70;99.90
38726;DHT22;24474;48.906;8.808;2023-09-07T09:27:06;20.70;99.90
38726;DHT22;24474;48.906;8.808;2023-09-07T09:29:36;20.80;99.90
38726;DHT22;24474;48.906;8.808;2023-09-07T09:32:03;20.90;99.90
38726;DHT22;24474;48.906;8.808;2023-09-07T09:34:35;20.90;99.90
38726;DHT22;24474;48.906;8.808;2023-09-07T09:37:02;21.00;99.90
38726;DHT22;24474;48.906;8.808;2023-09-07T09:39:30;21.00;99.90
38726;DHT22;24474;48.906;8.808;2023-09-07T09:41:57;21.10;99.90
38726;DHT22;24474;48.906;8.808;2023-09-07T09:44:30;21.20;99.90
38726;DHT22;24474;48.906;8.808;2023-09-07T09:46:57;21.20;99.90
38726;DHT22;24474;48.906;8.808;2023-09-07T09:49:26;21.30;99.90
38726;DHT22;24474;48.906;8.808;2023-09-07T09:51:54;21.30;99.90
38726;DHT22;24474;48.906;8.808;2023-09-07T09:54:24;21.40;99.90
38726;DHT22;24474;48.906;8.808;2023-09-07T09:56:53;21.40;99.90
38726;DHT22;24474;48.906;8.808;2023-09-07T09:59:22;21.50;99.90
38726;DHT22;24474;48.906;8.808;2023-09-07T10:01:49;21.50;99.90
38726;DHT22;24474;48.906;8.808;2023-09-07T10:04:17;21.50;99.90
38726;DHT22;24474;48.906;8.808;2023-09-07T10:07:10;21.60;99.90
38726;DHT22;24474;48.906;8.808;2023-09-07T10:09:38;21.60;99.90
38726;DHT22;24474;48.906;8.808;2023-09-07T10:12:04;21.70;99.90
38726;DHT22;24474;48.906;8.808;2023-09-07T10:14:42;21.80;99.90
38726;DHT22;24474;48.906;8.808;2023-09-07T10:17:21;21.80;99.90
38726;DHT22;24474;48.906;8.808;2023-09-07T10:19:49;21.90;99.90
38726;DHT22;24474;48.906;8.808;2023-09-07T10:22:25;21.90;99.90
38726;DHT22;24474;48.906;8.808;2023-09-07T10:24:59;21.90;99.90
38726;DHT22;24474;48.906;8.808;2023-09-07T10:27:25;22.00;99.90
38726;DHT22;24474;48.906;8.808;2023-09-07T10:29:52;22.10;99.90
38726;DHT22;24474;48.906;8.808;2023-09-07T10:32:20;22.10;99.90
38726;DHT22;24474;48.906;8.808;2023-09-07T10:34:47;22.20;99.90
38726;DHT22;24474;48.906;8.808;2023-09-07T10:37:14;22.30;99.90
38726;DHT22;24474;48.906;8.808;2023-09-07T10:39:42;22.30;99.90
38726;DHT22;24474;48.906;8.808;2023-09-07T10:42:24;22.40;99.90
38726;DHT22;24474;48.906;8.808;2023-09-07T10:44:53;22.40;99.90
38726;DHT22;24474;48.906;8.808;2023-09-07T10:47:20;22.50;99.90
38726;DHT22;24474;48.906;8.808;2023-09-07T10:49:47;22.50;99.90
38726;DHT22;24474;48.906;8.808;2023-09-07T10:52:17;22.60;99.90
38726;DHT22;24474;48.906;8.808;2023-09-07T10:54:43;22.60;99.90
38726;DHT22;24474;48.906;8.808;2023-09-07T10:57:10;22.60;99.90
38726;DHT22;24474;48.906;8.808;2023-09-07T10:59:44;22.70;99.90
38726;DHT22;24474;48.906;8.808;2023-09-07T11:02:11;22.70;99.90
38726;DHT22;24474;48.906;8.808;2023-09-07T11:04:38;22.80;99.90
38726;DHT22;24474;48.906;8.808;2023-09-07T11:07:06;22.80;99.90
38726;DHT22;24474;48.906;8.808;2023-09-07T11:09:33;22.80;99.90
38726;DHT22;24474;48.906;8.808;2023-09-07T11:12:05;22.90;99.90
38726;DHT22;24474;48.906;8.808;2023-09-07T11:14:31;22.90;99.90
38726;DHT22;24474;48.906;8.808;2023-09-07T11:16:57;23.00;99.90
38726;DHT22;24474;48.906;8.808;2023-09-07T11:19:23;23.10;99.90
38726;DHT22;24474;48.906;8.808;2023-09-07T11:21:48;23.10;99.90
38726;DHT22;24474;48.906;8.808;2023-09-07T11:24:14;23.10;99.90
38726;DHT22;24474;48.906;8.808;2023-09-07T11:26:47;23.20;99.90
38726;DHT22;24474;48.906;8.808;2023-09-07T11:29:17;23.30;99.90
38726;DHT22;24474;48.906;8.808;2023-09-07T11:31:47;23.30;99.90
38726;DHT22;24474;48.906;8.808;2023-09-07T11:34:14;23.30;99.90
38726;DHT22;24474;48.906;8.808;2023-09-07T11:36:41;23.40;99.90
38726;DHT22;24474;48.906;8.808;2023-09-07T11:39:07;23.40;99.90
38726;DHT22;24474;48.906;8.808;2023-09-07T11:41:43;23.40;99.90
38726;DHT22;24474;48.906;8.808;2023-09-07T11:44:09;23.40;99.90
38726;DHT22;24474;48.906;8.808;2023-09-07T11:46:36;23.40;99.90
38726;DHT22;24474;48.906;8.808;2023-09-07T11:49:02;23.50;99.90
38726;DHT22;24474;48.906;8.808;2023-09-07T11:51:30;23.60;99.90
38726;DHT22;24474;48.906;8.808;2023-09-07T11:53:55;23.60;99.90
38726;DHT22;24474;48.906;8.808;2023-09-07T11:56:21;23.70;99.90
38726;DHT22;24474;48.906;8.808;2023-09-07T11:58:46;23.70;99.90
38726;DHT22;24474;48.906;8.808;2023-09-07T12:01:13;23.80;99.90
38726;DHT22;24474;48.906;8.808;2023-09-07T12:03:42;23.80;99.90
38726;DHT22;24474;48.906;8.808;2023-09-07T12:06:08;23.80;99.90
38726;DHT22;24474;48.906;8.808;2023-09-07T12:08:34;23.90;99.90
38726;DHT22;24474;48.906;8.808;2023-09-07T12:11:01;23.90;99.90
38726;DHT22;24474;48.906;8.808;2023-09-07T12:13:28;24.00;99.90
38726;DHT22;24474;48.906;8.808;2023-09-07T12:15:54;24.00;99.90
38726;DHT22;24474;48.906;8.808;2023-09-07T12:18:21;24.00;99.90
38726;DHT22;24474;48.906;8.808;2023-09-07T12:20:48;24.00;99.90
38726;DHT22;24474;48.906;8.808;2023-09-07T12:23:15;24.10;99.90
38726;DHT22;24474;48.906;8.808;2023-09-07T12:25:42;24.10;99.90
38726;DHT22;24474;48.906;8.808;2023-09-07T12:28:08;24.20;99.90
38726;DHT22;24474;48.906;8.808;2023-09-07T12:30:35;24.20;99.90
38726;DHT22;24474;48.906;8.808;2023-09-07T12:33:02;24.30;99.90
38726;DHT22;24474;48.906;8.808;2023-09-07T12:35:28;24.30;99.90
38726;DHT22;24474;48.906;8.808;2023-09-07T12:37:55;24.30;99.90
38726;DHT22;24474;48.906;8.808;2023-09-07T12:40:22;24.40;99.90
38726;DHT22;24474;48.906;8.808;2023-09-07T12:42:49;24.40;99.90
38726;DHT22;24474;48.906;8.808;2023-09-07T12:45:16;24.40;99.90
38726;DHT22;24474;48.906;8.808;2023-09-07T12:47:42;24.40;99.90
38726;DHT22;24474;48.906;8.808;2023-09-07T12:50:09;24.50;99.90
38726;DHT22;24474;48.906;8.808;2023-09-07T12:52:36;24.50;99.90
38726;DHT22;24474;48.906;8.808;2023-09-07T12:55:04;24.50;99.90
38726;DHT22;24474;48.906;8.808;2023-09-07T12:57:31;24.50;99.90
38726;DHT22;24474;48.906;8.808;2023-09-07T12:59:58;24.60;99.90
38726;DHT22;24474;48.906;8.808;2023-09-07T13:02:26;24.60;99.90
38726;DHT22;24474;48.906;8.808;2023-09-07T13:04:54;24.60;99.90
38726;DHT22;24474;48.906;8.808;2023-09-07T13:07:22;24.70;99.90
38726;DHT22;24474;48.906;8.808;2023-09-07T13:09:49;24.70;99.90
38726;DHT22;24474;48.906;8.808;2023-09-07T13:12:15;24.80;99.90
38726;DHT22;24474;48.906;8.808;2023-09-07T13:14:42;24.80;99.90
38726;DHT22;24474;48.906;8.808;2023-09-07T13:17:12;24.80;99.90
38726;DHT22;24474;48.906;8.808;2023-09-07T13:19:39;24.90;99.90
38726;DHT22;24474;48.906;8.808;2023-09-07T13:22:05;24.90;99.90
38726;DHT22;24474;48.906;8.808;2023-09-07T13:24:33;24.90;99.90
38726;DHT22;24474;48.906;8.808;2023-09-07T13:26:59;24.90;99.90
38726;DHT22;24474;48.906;8.808;2023-09-07T13:29:25;25.00;99.90
38726;DHT22;24474;48.906;8.808;2023-09-07T13:31:53;24.90;99.90
38726;DHT22;24474;48.906;8.808;2023-09-07T13:34:20;25.00;99.90
38726;DHT22;24474;48.906;8.808;2023-09-07T13:36:47;25.00;99.90
38726;DHT22;24474;48.906;8.808;2023-09-07T13:39:14;25.10;99.90
38726;DHT22;24474;48.906;8.808;2023-09-07T13:41:39;25.10;99.70
38726;DHT22;24474;48.906;8.808;2023-09-07T13:44:06;25.20;99.90
38726;DHT22;24474;48.906;8.808;2023-09-07T13:46:33;25.20;99.90
38726;DHT22;24474;48.906;8.808;2023-09-07T13:49:00;25.30;99.70
38726;DHT22;24474;48.906;8.808;2023-09-07T13:51:27;25.30;99.10
38726;DHT22;24474;48.906;8.808;2023-09-07T13:53:54;25.30;99.90
38726;DHT22;24474;48.906;8.808;2023-09-07T13:56:20;25.40;99.30
38726;DHT22;24474;48.906;8.808;2023-09-07T13:58:46;25.40;99.10
38726;DHT22;24474;48.906;8.808;2023-09-07T14:01:13;25.40;99.20
38726;DHT22;24474;48.906;8.808;2023-09-07T14:03:40;25.40;99.50
38726;DHT22;24474;48.906;8.808;2023-09-07T14:06:07;25.40;99.60
38726;DHT22;24474;48.906;8.808;2023-09-07T14:08:34;25.40;99.50
38726;DHT22;24474;48.906;8.808;2023-09-07T14:11:01;25.40;99.00
38726;DHT22;24474;48.906;8.808;2023-09-07T14:13:28;25.40;98.30
38726;DHT22;24474;48.906;8.808;2023-09-07T14:15:55;25.50;99.00
38726;DHT22;24474;48.906;8.808;2023-09-07T14:18:21;25.50;98.90
38726;DHT22;24474;48.906;8.808;2023-09-07T14:20:47;25.50;99.00
38726;DHT22;24474;48.906;8.808;2023-09-07T14:23:14;25.60;98.30
38726;DHT22;24474;48.906;8.808;2023-09-07T14:25:41;25.60;98.70
38726;DHT22;24474;48.906;8.808;2023-09-07T14:28:11;25.60;98.80
38726;DHT22;24474;48.906;8.808;2023-09-07T14:30:37;25.60;98.10
38726;DHT22;24474;48.906;8.808;2023-09-07T14:33:04;25.60;98.10
38726;DHT22;24474;48.906;8.808;2023-09-07T14:35:31;25.70;98.10
38726;DHT22;24474;48.906;8.808;2023-09-07T14:37:58;25.70;98.10
38726;DHT22;24474;48.906;8.808;2023-09-07T14:40:23;25.80;98.30
38726;DHT22;24474;48.906;8.808;2023-09-07T14:42:50;25.90;98.20
38726;DHT22;24474;48.906;8.808;2023-09-07T14:45:17;25.90;98.00
38726;DHT22;24474;48.906;8.808;2023-09-07T14:47:43;25.90;98.00
38726;DHT22;24474;48.906;8.808;2023-09-07T14:50:09;25.90;98.00
38726;DHT22;24474;48.906;8.808;2023-09-07T14:52:34;26.00;97.90
38726;DHT22;24474;48.906;8.808;2023-09-07T14:55:09;26.00;97.50
38726;DHT22;24474;48.906;8.808;2023-09-07T14:57:36;26.10;97.80
38726;DHT22;24474;48.906;8.808;2023-09-07T15:00:03;26.00;97.50
38726;DHT22;24474;48.906;8.808;2023-09-07T15:02:30;26.10;97.50
38726;DHT22;24474;48.906;8.808;2023-09-07T15:04:56;26.10;97.90
38726;DHT22;24474;48.906;8.808;2023-09-07T15:07:23;26.10;97.90
38726;DHT22;24474;48.906;8.808;2023-09-07T15:09:54;26.10;97.70
38726;DHT22;24474;48.906;8.808;2023-09-07T15:12:19;26.10;97.20
38726;DHT22;24474;48.906;8.808;2023-09-07T15:14:45;26.10;97.50
38726;DHT22;24474;48.906;8.808;2023-09-07T15:17:12;26.10;98.10
38726;DHT22;24474;48.906;8.808;2023-09-07T15:19:40;26.10;97.70
38726;DHT22;24474;48.906;8.808;2023-09-07T15:22:05;26.20;97.70
38726;DHT22;24474;48.906;8.808;2023-09-07T15:24:31;26.20;97.90
38726;DHT22;24474;48.906;8.808;2023-09-07T15:26:57;26.20;97.90
38726;DHT22;24474;48.906;8.808;2023-09-07T15:29:22;26.20;97.90
38726;DHT22;24474;48.906;8.808;2023-09-07T15:31:49;26.20;98.30
38726;DHT22;24474;48.906;8.808;2023-09-07T15:34:16;26.20;97.50
38726;DHT22;24474;48.906;8.808;2023-09-07T15:36:41;26.20;97.50
38726;DHT22;24474;48.906;8.808;2023-09-07T15:39:08;26.30;97.80
38726;DHT22;24474;48.906;8.808;2023-09-07T15:41:33;26.30;97.60
38726;DHT22;24474;48.906;8.808;2023-09-07T15:43:59;26.30;97.40